sensor_id;sensor_type;location;lat;lon;timestamp;pressure;altitude;pressure_sealevel;temperature;humidity
64336;BME280;50672;53.362;-6.240;2022-12-20T00:01:18;99770.53;;;7.32;76.28
64336;BME280;50672;53.362;-6.240;2022-12-20T00:03:48;99769.72;;;7.31;76.62
64336;BME280;50672;53.362;-6.240;2022-12-20T00:06:16;99781.50;;;7.39;76.81
64336;BME280;50672;53.362;-6.240;2022-12-20T00:08:42;99783.34;;;7.38;76.34
64336;BME280;50672;53.362;-6.240;2022-12-20T00:11:12;99782.34;;;7.39;76.71
64336;BME280;50672;53.362;-6.240;2022-12-20T00:13:39;99776.94;;;7.39;76.60
64336;BME280;50672;53.362;-6.240;2022-12-20T00:16:18;99784.41;;;7.37;76.45
64336;BME280;50672;53.362;-6.240;2022-12-20T00:18:45;99779.34;;;7.34;76.63
64336;BME280;50672;53.362;-6.240;2022-12-20T00:21:13;99775.22;;;7.38;76.68
64336;BME280;50672;53.362;-6.240;2022-12-20T00:23:40;99772.38;;;7.40;76.77
64336;BME280;50672;53.362;-6.240;2022-12-20T00:26:12;99787.75;;;7.39;76.58
64336;BME280;50672;53.362;-6.240;2022-12-20T00:28:40;99770.69;;;7.39;76.74
64336;BME280;50672;53.362;-6.240;2022-12-20T00:31:09;99770.31;;;7.42;76.55
64336;BME280;50672;53.362;-6.240;2022-12-20T00:33:37;99774.53;;;7.44;76.62
64336;BME280;50672;53.362;-6.240;2022-12-20T00:36:05;99772.97;;;7.50;76.68
64336;BME280;50672;53.362;-6.240;2022-12-20T00:38:33;99783.25;;;7.55;76.65
64336;BME280;50672;53.362;-6.240;2022-12-20T00:41:04;99777.97;;;7.61;76.76
64336;BME280;50672;53.362;-6.240;2022-12-20T00:43:32;99772.13;;;7.73;76.48
64336;BME280;50672;53.362;-6.240;2022-12-20T00:45:59;99768.69;;;7.79;76.58
64336;BME280;50672;53.362;-6.240;2022-12-20T00:48:27;99780.50;;;7.86;76.75
64336;BME280;50672;53.362;-6.240;2022-12-20T00:51:05;99771.44;;;7.94;76.52
64336;BME280;50672;53.362;-6.240;2022-12-20T00:53:33;99771.00;;;8.05;76.23
64336;BME280;50672;53.362;-6.240;2022-12-20T00:56:00;99767.75;;;8.10;76.36
64336;BME280;50672;53.362;-6.240;2022-12-20T00:58:28;99758.22;;;8.14;76.26
64336;BME280;50672;53.362;-6.240;2022-12-20T01:00:54;99758.59;;;8.11;75.87
64336;BME280;50672;53.362;-6.240;2022-12-20T01:03:23;99764.84;;;8.11;75.95
64336;BME280;50672;53.362;-6.240;2022-12-20T01:05:52;99769.44;;;8.11;75.75
64336;BME280;50672;53.362;-6.240;2022-12-20T01:08:20;99771.97;;;8.12;75.76
64336;BME280;50672;53.362;-6.240;2022-12-20T01:10:57;99774.50;;;8.14;75.84
64336;BME280;50672;53.362;-6.240;2022-12-20T01:13:25;99777.22;;;8.14;75.91
64336;BME280;50672;53.362;-6.240;2022-12-20T01:15:51;99771.97;;;8.12;75.58
64336;BME280;50672;53.362;-6.240;2022-12-20T01:18:18;99774.00;;;8.10;75.34
64336;BME280;50672;53.362;-6.240;2022-12-20T01:20:45;99773.63;;;8.13;75.45
64336;BME280;50672;53.362;-6.240;2022-12-20T01:23:12;99778.53;;;8.18;75.61
64336;BME280;50672;53.362;-6.240;2022-12-20T01:25:39;99781.06;;;8.19;75.40
64336;BME280;50672;53.362;-6.240;2022-12-20T01:28:05;99777.97;;;8.23;75.44
64336;BME280;50672;53.362;-6.240;2022-12-20T01:30:32;99775.91;;;8.25;75.66
64336;BME280;50672;53.362;-6.240;2022-12-20T01:32:59;99781.50;;;8.23;75.63
64336;BME280;50672;53.362;-6.240;2022-12-20T01:35:26;99770.41;;;8.18;75.56
64336;BME280;50672;53.362;-6.240;2022-12-20T01:37:52;99765.50;;;8.13;75.66
64336;BME280;50672;53.362;-6.240;2022-12-20T01:40:19;99761.47;;;8.09;75.66
64336;BME280;50672;53.362;-6.240;2022-12-20T01:42:46;99761.19;;;8.04;75.45
64336;BME280;50672;53.362;-6.240;2022-12-20T01:45:22;99771.56;;;8.00;75.73
64336;BME280;50672;53.362;-6.240;2022-12-20T01:47:51;99778.84;;;8.00;75.61
64336;BME280;50672;53.362;-6.240;2022-12-20T01:50:18;99789.31;;;8.03;75.59
64336;BME280;50672;53.362;-6.240;2022-12-20T01:52:45;99776.25;;;8.07;75.75
64336;BME280;50672;53.362;-6.240;2022-12-20T01:55:23;99775.03;;;8.09;75.62
64336;BME280;50672;53.362;-6.240;2022-12-20T01:57:59;99782.13;;;8.10;75.86
64336;BME280;50672;53.362;-6.240;2022-12-20T02:00:27;99779.44;;;8.10;75.89
64336;BME280;50672;53.362;-6.240;2022-12-20T02:02:58;99780.19;;;8.04;75.67
64336;BME280;50672;53.362;-6.240;2022-12-20T02:05:26;99769.03;;;7.99;75.89
64336;BME280;50672;53.362;-6.240;2022-12-20T02:07:54;99773.50;;;7.92;75.68
64336;BME280;50672;53.362;-6.240;2022-12-20T02:10:27;99766.09;;;7.85;75.68
64336;BME280;50672;53.362;-6.240;2022-12-20T02:13:00;99766.09;;;7.85;75.98
64336;BME280;50672;53.362;-6.240;2022-12-20T02:15:53;99763.56;;;7.84;75.80
64336;BME280;50672;53.362;-6.240;2022-12-20T02:18:37;99770.56;;;7.78;75.93
64336;BME280;50672;53.362;-6.240;2022-12-20T02:24:38;99757.94;;;7.70;75.96
64336;BME280;50672;53.362;-6.240;2022-12-20T02:32:03;99772.69;;;7.68;76.17
64336;BME280;50672;53.362;-6.240;2022-12-20T02:34:35;99775.00;;;7.71;76.43
64336;BME280;50672;53.362;-6.240;2022-12-20T02:37:03;99770.63;;;7.70;76.17
64336;BME280;50672;53.362;-6.240;2022-12-20T02:39:31;99785.53;;;7.66;76.24
64336;BME280;50672;53.362;-6.240;2022-12-20T02:42:07;99780.50;;;7.63;76.24
64336;BME280;50672;53.362;-6.240;2022-12-20T02:44:38;99776.41;;;7.67;76.35
64336;BME280;50672;53.362;-6.240;2022-12-20T02:47:30;99783.00;;;7.64;76.29
64336;BME280;50672;53.362;-6.240;2022-12-20T02:49:59;99784.53;;;7.67;76.30
64336;BME280;50672;53.362;-6.240;2022-12-20T02:52:28;99776.78;;;7.64;76.65
64336;BME280;50672;53.362;-6.240;2022-12-20T02:54:57;99778.47;;;7.65;76.62
64336;BME280;50672;53.362;-6.240;2022-12-20T03:00:01;99785.44;;;7.59;76.53
64336;BME280;50672;53.362;-6.240;2022-12-20T03:02:28;99774.44;;;7.61;76.69
64336;BME280;50672;53.362;-6.240;2022-12-20T03:05:16;99779.34;;;7.57;76.61
64336;BME280;50672;53.362;-6.240;2022-12-20T03:07:45;99778.69;;;7.55;76.61
64336;BME280;50672;53.362;-6.240;2022-12-20T03:10:12;99783.63;;;7.51;76.69
64336;BME280;50672;53.362;-6.240;2022-12-20T03:12:39;99779.59;;;7.47;76.93
64336;BME280;50672;53.362;-6.240;2022-12-20T03:15:06;99777.44;;;7.43;76.78
64336;BME280;50672;53.362;-6.240;2022-12-20T03:17:33;99773.84;;;7.42;77.06
64336;BME280;50672;53.362;-6.240;2022-12-20T03:20:00;99768.63;;;7.41;77.00
64336;BME280;50672;53.362;-6.240;2022-12-20T03:22:27;99773.19;;;7.40;77.25
64336;BME280;50672;53.362;-6.240;2022-12-20T03:24:54;99768.34;;;7.35;77.35
64336;BME280;50672;53.362;-6.240;2022-12-20T03:27:21;99760.22;;;7.35;77.26
64336;BME280;50672;53.362;-6.240;2022-12-20T03:29:48;99766.81;;;7.33;77.42
64336;BME280;50672;53.362;-6.240;2022-12-20T03:32:14;99768.53;;;7.34;77.39
64336;BME280;50672;53.362;-6.240;2022-12-20T03:34:41;99770.19;;;7.35;77.50
64336;BME280;50672;53.362;-6.240;2022-12-20T03:37:08;99777.78;;;7.40;77.38
64336;BME280;50672;53.362;-6.240;2022-12-20T03:39:34;99771.50;;;7.39;77.63
64336;BME280;50672;53.362;-6.240;2022-12-20T03:42:01;99776.94;;;7.39;77.56
64336;BME280;50672;53.362;-6.240;2022-12-20T03:44:28;99784.22;;;7.39;77.59
64336;BME280;50672;53.362;-6.240;2022-12-20T03:46:55;99791.47;;;7.38;77.72
64336;BME280;50672;53.362;-6.240;2022-12-20T03:49:22;99786.91;;;7.39;77.62
64336;BME280;50672;53.362;-6.240;2022-12-20T03:51:49;99789.44;;;7.40;77.63
64336;BME280;50672;53.362;-6.240;2022-12-20T03:54:15;99798.59;;;7.39;77.68
64336;BME280;50672;53.362;-6.240;2022-12-20T03:56:42;99807.72;;;7.38;77.65
64336;BME280;50672;53.362;-6.240;2022-12-20T03:59:09;99808.75;;;7.37;77.69
64336;BME280;50672;53.362;-6.240;2022-12-20T04:01:35;99807.72;;;7.38;78.03
64336;BME280;50672;53.362;-6.240;2022-12-20T04:04:04;99808.75;;;7.37;77.79
64336;BME280;50672;53.362;-6.240;2022-12-20T04:06:31;99803.53;;;7.35;77.83
64336;BME280;50672;53.362;-6.240;2022-12-20T04:08:58;99815.19;;;7.36;77.98
64336;BME280;50672;53.362;-6.240;2022-12-20T04:11:25;99815.19;;;7.36;78.19
64336;BME280;50672;53.362;-6.240;2022-12-20T04:13:52;99804.53;;;7.34;78.02
64336;BME280;50672;53.362;-6.240;2022-12-20T04:16:23;99809.78;;;7.36;78.21
64336;BME280;50672;53.362;-6.240;2022-12-20T04:18:51;99816.38;;;7.33;78.40
64336;BME280;50672;53.362;-6.240;2022-12-20T04:21:29;99811.34;;;7.30;78.20
64336;BME280;50672;53.362;-6.240;2022-12-20T04:23:57;99819.63;;;7.29;78.46
64336;BME280;50672;53.362;-6.240;2022-12-20T04:26:25;99819.81;;;7.27;78.45
64336;BME280;50672;53.362;-6.240;2022-12-20T04:28:52;99817.47;;;7.24;78.48
64336;BME280;50672;53.362;-6.240;2022-12-20T04:31:19;99821.19;;;7.23;78.25
64336;BME280;50672;53.362;-6.240;2022-12-20T04:33:49;99825.09;;;7.21;78.53
64336;BME280;50672;53.362;-6.240;2022-12-20T04:36:16;99820.03;;;7.17;78.51
64336;BME280;50672;53.362;-6.240;2022-12-20T04:38:43;99823.38;;;7.19;78.59
64336;BME280;50672;53.362;-6.240;2022-12-20T04:41:10;99821.53;;;7.20;78.66
64336;BME280;50672;53.362;-6.240;2022-12-20T04:43:52;99825.09;;;7.21;78.94
64336;BME280;50672;53.362;-6.240;2022-12-20T04:46:20;99820.88;;;7.18;78.87
64336;BME280;50672;53.362;-6.240;2022-12-20T04:48:47;99830.53;;;7.12;78.73
64336;BME280;50672;53.362;-6.240;2022-12-20T04:51:25;99831.06;;;7.08;79.20
64336;BME280;50672;53.362;-6.240;2022-12-20T04:53:52;99831.25;;;7.06;79.16
64336;BME280;50672;53.362;-6.240;2022-12-20T04:56:26;99832.63;;;7.02;79.28
64336;BME280;50672;53.362;-6.240;2022-12-20T04:58:56;99838.84;;;7.03;79.31
64336;BME280;50672;53.362;-6.240;2022-12-20T05:01:23;99847.81;;;7.03;79.33
64336;BME280;50672;53.362;-6.240;2022-12-20T05:03:50;99848.84;;;7.02;79.27
64336;BME280;50672;53.362;-6.240;2022-12-20T05:06:17;99851.06;;;6.98;79.45
64336;BME280;50672;53.362;-6.240;2022-12-20T05:08:44;99850.22;;;6.98;79.51
64336;BME280;50672;53.362;-6.240;2022-12-20T05:11:11;99853.56;;;7.00;79.56
64336;BME280;50672;53.362;-6.240;2022-12-20T05:13:38;99856.25;;;7.08;79.48
64336;BME280;50672;53.362;-6.240;2022-12-20T05:16:05;99858.91;;;7.25;79.31
64336;BME280;50672;53.362;-6.240;2022-12-20T05:18:32;99856.16;;;7.33;79.28
64336;BME280;50672;53.362;-6.240;2022-12-20T05:21:00;99858.84;;;7.41;79.15
64336;BME280;50672;53.362;-6.240;2022-12-20T05:23:45;99858.66;;;7.43;79.20
64336;BME280;50672;53.362;-6.240;2022-12-20T05:26:33;99871.03;;;7.37;79.12
64336;BME280;50672;53.362;-6.240;2022-12-20T05:29:02;99871.38;;;7.34;79.10
64336;BME280;50672;53.362;-6.240;2022-12-20T05:31:29;99868.00;;;7.32;78.75
64336;BME280;50672;53.362;-6.240;2022-12-20T05:33:57;99860.88;;;7.31;78.73
64336;BME280;50672;53.362;-6.240;2022-12-20T05:36:24;99863.59;;;7.31;78.88
64336;BME280;50672;53.362;-6.240;2022-12-20T05:38:51;99872.75;;;7.30;78.78
64336;BME280;50672;53.362;-6.240;2022-12-20T05:41:25;99860.41;;;7.27;78.95
64336;BME280;50672;53.362;-6.240;2022-12-20T05:43:52;99871.28;;;7.19;78.98
64336;BME280;50672;53.362;-6.240;2022-12-20T05:46:19;99875.72;;;7.12;78.81
64336;BME280;50672;53.362;-6.240;2022-12-20T05:48:45;99867.44;;;7.05;78.96
64336;BME280;50672;53.362;-6.240;2022-12-20T05:51:12;99875.91;;;7.02;78.87
64336;BME280;50672;53.362;-6.240;2022-12-20T05:53:39;99877.94;;;7.00;79.17
64336;BME280;50672;53.362;-6.240;2022-12-20T05:56:06;99883.69;;;6.97;79.03
64336;BME280;50672;53.362;-6.240;2022-12-20T05:58:33;99892.81;;;6.96;79.22
64336;BME280;50672;53.362;-6.240;2022-12-20T06:01:01;99890.81;;;6.98;79.18
64336;BME280;50672;53.362;-6.240;2022-12-20T06:03:28;99884.69;;;6.96;79.37
64336;BME280;50672;53.362;-6.240;2022-12-20T06:05:55;99886.75;;;6.94;79.55
64336;BME280;50672;53.362;-6.240;2022-12-20T06:08:22;99887.09;;;6.91;79.36
64336;BME280;50672;53.362;-6.240;2022-12-20T06:10:50;99891.16;;;6.87;79.62
64336;BME280;50672;53.362;-6.240;2022-12-20T06:13:17;99886.59;;;6.87;79.47
64336;BME280;50672;53.362;-6.240;2022-12-20T06:15:44;99893.19;;;6.84;79.83
64336;BME280;50672;53.362;-6.240;2022-12-20T06:18:11;99893.53;;;6.81;79.63
64336;BME280;50672;53.362;-6.240;2022-12-20T06:20:39;99899.97;;;6.80;79.86
64336;BME280;50672;53.362;-6.240;2022-12-20T06:23:06;99888.47;;;6.78;79.71
64336;BME280;50672;53.362;-6.240;2022-12-20T06:25:35;99887.78;;;6.76;79.71
64336;BME280;50672;53.362;-6.240;2022-12-20T06:28:03;99888.97;;;6.74;79.97
64336;BME280;50672;53.362;-6.240;2022-12-20T06:30:31;99896.59;;;6.70;79.70
64336;BME280;50672;53.362;-6.240;2022-12-20T06:33:00;99903.03;;;6.69;80.11
64336;BME280;50672;53.362;-6.240;2022-12-20T06:35:28;99897.97;;;6.66;79.85
64336;BME280;50672;53.362;-6.240;2022-12-20T06:37:55;99896.97;;;6.67;79.84
64336;BME280;50672;53.362;-6.240;2022-12-20T06:40:22;99907.59;;;6.69;80.05
64336;BME280;50672;53.362;-6.240;2022-12-20T06:42:49;99912.31;;;6.75;80.03
64336;BME280;50672;53.362;-6.240;2022-12-20T06:45:16;99906.72;;;6.76;79.85
64336;BME280;50672;53.362;-6.240;2022-12-20T06:47:43;99910.13;;;6.78;79.67
64336;BME280;50672;53.362;-6.240;2022-12-20T06:50:10;99904.03;;;6.76;79.63
64336;BME280;50672;53.362;-6.240;2022-12-20T06:52:37;99911.78;;;6.71;79.64
64336;BME280;50672;53.362;-6.240;2022-12-20T06:55:03;99902.38;;;6.67;79.81
64336;BME280;50672;53.362;-6.240;2022-12-20T06:57:30;99916.03;;;6.65;79.61
64336;BME280;50672;53.362;-6.240;2022-12-20T06:59:58;99911.66;;;6.64;79.72
64336;BME280;50672;53.362;-6.240;2022-12-20T07:02:25;99923.66;;;6.62;79.79
64336;BME280;50672;53.362;-6.240;2022-12-20T07:04:53;99924.19;;;6.57;79.85
64336;BME280;50672;53.362;-6.240;2022-12-20T07:07:21;99923.66;;;6.54;79.83
64336;BME280;50672;53.362;-6.240;2022-12-20T07:09:47;99926.88;;;6.49;79.81
64336;BME280;50672;53.362;-6.240;2022-12-20T07:12:14;99926.00;;;6.48;79.87
64336;BME280;50672;53.362;-6.240;2022-12-20T07:14:41;99925.84;;;6.50;79.82
64336;BME280;50672;53.362;-6.240;2022-12-20T07:17:09;99936.50;;;6.52;79.82
64336;BME280;50672;53.362;-6.240;2022-12-20T07:19:36;99945.47;;;6.52;80.13
64336;BME280;50672;53.362;-6.240;2022-12-20T07:22:03;99938.88;;;6.55;79.94
64336;BME280;50672;53.362;-6.240;2022-12-20T07:24:31;99948.34;;;6.59;80.04
64336;BME280;50672;53.362;-6.240;2022-12-20T07:26:58;99942.94;;;6.59;80.08
64336;BME280;50672;53.362;-6.240;2022-12-20T07:29:25;99943.75;;;6.59;80.20
64336;BME280;50672;53.362;-6.240;2022-12-20T07:31:52;99939.19;;;6.60;80.06
64336;BME280;50672;53.362;-6.240;2022-12-20T07:34:19;99944.59;;;6.60;80.09
64336;BME280;50672;53.362;-6.240;2022-12-20T07:36:46;99938.34;;;6.59;79.95
64336;BME280;50672;53.362;-6.240;2022-12-20T07:39:13;99956.75;;;6.56;80.19
64336;BME280;50672;53.362;-6.240;2022-12-20T07:41:40;99952.41;;;6.55;80.16
64336;BME280;50672;53.362;-6.240;2022-12-20T07:44:07;99957.97;;;6.53;80.01
64336;BME280;50672;53.362;-6.240;2022-12-20T07:46:34;99965.22;;;6.53;80.00
64336;BME280;50672;53.362;-6.240;2022-12-20T07:49:00;99968.09;;;6.51;80.18
64336;BME280;50672;53.362;-6.240;2022-12-20T07:51:31;99980.09;;;6.48;79.81
64336;BME280;50672;53.362;-6.240;2022-12-20T07:54:07;99982.13;;;6.46;80.10
64336;BME280;50672;53.362;-6.240;2022-12-20T07:56:37;99983.97;;;6.46;80.16
64336;BME280;50672;53.362;-6.240;2022-12-20T07:59:08;99981.78;;;6.41;80.18
64336;BME280;50672;53.362;-6.240;2022-12-20T08:01:37;99990.22;;;6.38;79.86
64336;BME280;50672;53.362;-6.240;2022-12-20T08:04:10;99986.53;;;6.39;80.06
64336;BME280;50672;53.362;-6.240;2022-12-20T08:06:38;99990.41;;;6.37;79.89
64336;BME280;50672;53.362;-6.240;2022-12-20T08:09:07;99996.81;;;6.36;79.95
64336;BME280;50672;53.362;-6.240;2022-12-20T08:11:36;99988.88;;;6.34;79.88
64336;BME280;50672;53.362;-6.240;2022-12-20T08:14:04;99997.63;;;6.36;79.80
64336;BME280;50672;53.362;-6.240;2022-12-20T08:16:32;100000.50;;;6.35;79.98
64336;BME280;50672;53.362;-6.240;2022-12-20T08:18:59;100004.38;;;6.32;80.03
64336;BME280;50672;53.362;-6.240;2022-12-20T08:21:26;100018.25;;;6.29;79.63
64336;BME280;50672;53.362;-6.240;2022-12-20T08:23:53;100019.25;;;6.28;79.92
64336;BME280;50672;53.362;-6.240;2022-12-20T08:26:20;100021.94;;;6.28;79.83
64336;BME280;50672;53.362;-6.240;2022-12-20T08:28:47;100023.31;;;6.24;79.68
64336;BME280;50672;53.362;-6.240;2022-12-20T08:31:13;100039.19;;;6.27;79.62
64336;BME280;50672;53.362;-6.240;2022-12-20T08:33:41;100037.34;;;6.27;79.67
64336;BME280;50672;53.362;-6.240;2022-12-20T08:36:10;100027.22;;;6.29;79.59
64336;BME280;50672;53.362;-6.240;2022-12-20T08:38:38;100034.47;;;6.29;79.59
64336;BME280;50672;53.362;-6.240;2022-12-20T08:41:15;100028.56;;;6.33;79.26
64336;BME280;50672;53.362;-6.240;2022-12-20T08:43:42;100028.41;;;6.35;79.09
64336;BME280;50672;53.362;-6.240;2022-12-20T08:46:10;100036.50;;;6.35;79.17
64336;BME280;50672;53.362;-6.240;2022-12-20T08:48:38;100043.09;;;6.32;79.04
64336;BME280;50672;53.362;-6.240;2022-12-20T08:51:08;100033.28;;;6.31;78.88
64336;BME280;50672;53.362;-6.240;2022-12-20T08:53:35;100044.94;;;6.32;78.73
64336;BME280;50672;53.362;-6.240;2022-12-20T08:56:08;100044.09;;;6.31;78.41
64336;BME280;50672;53.362;-6.240;2022-12-20T08:58:36;100048.66;;;6.31;78.37
64336;BME280;50672;53.362;-6.240;2022-12-20T09:01:06;100052.56;;;6.37;78.48
64336;BME280;50672;53.362;-6.240;2022-12-20T09:03:35;100065.91;;;6.38;78.14
64336;BME280;50672;53.362;-6.240;2022-12-20T09:06:07;100051.69;;;6.36;78.14
64336;BME280;50672;53.362;-6.240;2022-12-20T09:08:35;100052.03;;;6.33;77.78
64336;BME280;50672;53.362;-6.240;2022-12-20T09:11:18;100054.56;;;6.35;77.57
64336;BME280;50672;53.362;-6.240;2022-12-20T09:13:46;100060.84;;;6.35;77.31
64336;BME280;50672;53.362;-6.240;2022-12-20T09:16:15;100062.50;;;6.36;77.17
64336;BME280;50672;53.362;-6.240;2022-12-20T09:18:42;100066.25;;;6.35;77.10
64336;BME280;50672;53.362;-6.240;2022-12-20T09:21:10;100074.66;;;6.32;77.06
64336;BME280;50672;53.362;-6.240;2022-12-20T09:23:37;100066.56;;;6.32;76.96
64336;BME280;50672;53.362;-6.240;2022-12-20T09:26:06;100076.53;;;6.31;76.89
64336;BME280;50672;53.362;-6.240;2022-12-20T09:28:33;100063.00;;;6.31;76.75
64336;BME280;50672;53.362;-6.240;2022-12-20T09:31:02;100071.97;;;6.32;76.35
64336;BME280;50672;53.362;-6.240;2022-12-20T09:33:30;100068.09;;;6.35;76.32
64336;BME280;50672;53.362;-6.240;2022-12-20T09:35:58;100079.94;;;6.33;76.14
64336;BME280;50672;53.362;-6.240;2022-12-20T09:38:25;100084.47;;;6.33;76.15
64336;BME280;50672;53.362;-6.240;2022-12-20T09:40:54;100078.22;;;6.32;75.86
64336;BME280;50672;53.362;-6.240;2022-12-20T09:43:22;100089.88;;;6.33;75.72
64336;BME280;50672;53.362;-6.240;2022-12-20T09:45:53;100083.47;;;6.34;75.51
64336;BME280;50672;53.362;-6.240;2022-12-20T09:48:28;100086.19;;;6.34;75.62
64336;BME280;50672;53.362;-6.240;2022-12-20T09:54:14;100102.06;;;6.37;75.19
64336;BME280;50672;53.362;-6.240;2022-12-20T09:56:45;100110.53;;;6.42;74.99
64336;BME280;50672;53.362;-6.240;2022-12-20T09:59:14;100124.41;;;6.47;75.16
64336;BME280;50672;53.362;-6.240;2022-12-20T10:01:48;100121.38;;;6.50;74.79
64336;BME280;50672;53.362;-6.240;2022-12-20T10:04:24;100121.69;;;6.56;74.60
64336;BME280;50672;53.362;-6.240;2022-12-20T10:10:09;100130.38;;;6.67;74.39
64336;BME280;50672;53.362;-6.240;2022-12-20T10:13:09;100133.25;;;6.66;74.39
64336;BME280;50672;53.362;-6.240;2022-12-20T10:24:44;100145.75;;;6.67;73.89
64336;BME280;50672;53.362;-6.240;2022-12-20T10:27:17;100134.94;;;6.67;73.65
64336;BME280;50672;53.362;-6.240;2022-12-20T10:29:46;100138.84;;;6.73;73.47
64336;BME280;50672;53.362;-6.240;2022-12-20T10:32:17;100140.50;;;6.74;73.08
64336;BME280;50672;53.362;-6.240;2022-12-20T10:37:37;100137.34;;;6.87;72.68
64336;BME280;50672;53.362;-6.240;2022-12-20T10:40:26;100140.03;;;6.95;72.74
64336;BME280;50672;53.362;-6.240;2022-12-20T10:43:16;100146.66;;;7.00;72.24
64336;BME280;50672;53.362;-6.240;2022-12-20T10:46:03;100147.16;;;7.04;72.17
64336;BME280;50672;53.362;-6.240;2022-12-20T10:48:34;100159.84;;;7.04;71.90
64336;BME280;50672;53.362;-6.240;2022-12-20T10:53:59;100149.69;;;7.06;71.64
64336;BME280;50672;53.362;-6.240;2022-12-20T10:56:31;100145.97;;;7.07;71.51
64336;BME280;50672;53.362;-6.240;2022-12-20T11:01:31;100142.09;;;7.09;71.01
64336;BME280;50672;53.362;-6.240;2022-12-20T11:04:29;100137.34;;;7.11;71.01
64336;BME280;50672;53.362;-6.240;2022-12-20T11:06:55;100131.59;;;7.14;70.95
64336;BME280;50672;53.362;-6.240;2022-12-20T11:09:29;100133.28;;;7.15;70.82
64336;BME280;50672;53.362;-6.240;2022-12-20T11:12:11;100147.53;;;7.17;70.39
64336;BME280;50672;53.362;-6.240;2022-12-20T11:14:40;100162.41;;;7.22;70.29
64336;BME280;50672;53.362;-6.240;2022-12-20T11:30:28;100129.59;;;7.33;69.26
64336;BME280;50672;53.362;-6.240;2022-12-20T11:33:30;100130.25;;;7.35;69.25
64336;BME280;50672;53.362;-6.240;2022-12-20T11:41:31;100124.66;;;7.36;68.81
64336;BME280;50672;53.362;-6.240;2022-12-20T11:50:12;100133.81;;;7.44;68.43
64336;BME280;50672;53.362;-6.240;2022-12-20T11:52:52;100122.63;;;7.47;68.22
64336;BME280;50672;53.362;-6.240;2022-12-20T11:55:26;100120.75;;;7.47;68.12
64336;BME280;50672;53.362;-6.240;2022-12-20T11:58:20;100123.28;;;7.49;68.27
64336;BME280;50672;53.362;-6.240;2022-12-20T12:00:56;100117.72;;;7.50;68.04
64336;BME280;50672;53.362;-6.240;2022-12-20T12:03:32;100118.41;;;7.52;67.80
64336;BME280;50672;53.362;-6.240;2022-12-20T12:06:16;100120.09;;;7.53;67.69
64336;BME280;50672;53.362;-6.240;2022-12-20T12:11:52;100106.22;;;7.57;67.74
64336;BME280;50672;53.362;-6.240;2022-12-20T12:14:49;100104.16;;;7.59;67.52
64336;BME280;50672;53.362;-6.240;2022-12-20T12:17:43;100094.38;;;7.58;67.31
64336;BME280;50672;53.362;-6.240;2022-12-20T12:20:27;100103.97;;;7.60;67.21
64336;BME280;50672;53.362;-6.240;2022-12-20T12:23:28;100109.22;;;7.62;67.17
64336;BME280;50672;53.362;-6.240;2022-12-20T12:25:52;100099.25;;;7.62;67.20
64336;BME280;50672;53.362;-6.240;2022-12-20T12:28:21;100092.81;;;7.63;66.97
64336;BME280;50672;53.362;-6.240;2022-12-20T12:30:58;100094.50;;;7.64;67.14
64336;BME280;50672;53.362;-6.240;2022-12-20T12:33:39;100096.38;;;7.64;66.81
64336;BME280;50672;53.362;-6.240;2022-12-20T12:36:43;100092.81;;;7.63;66.79
64336;BME280;50672;53.362;-6.240;2022-12-20T12:44:45;100100.06;;;7.71;66.79
64336;BME280;50672;53.362;-6.240;2022-12-20T12:48:10;100108.88;;;7.73;66.69
64336;BME280;50672;53.362;-6.240;2022-12-20T12:50:29;100103.94;;;7.77;66.51
64336;BME280;50672;53.362;-6.240;2022-12-20T12:53:06;100103.78;;;7.78;66.43
64336;BME280;50672;53.362;-6.240;2022-12-20T12:55:51;100110.06;;;7.79;66.31
64336;BME280;50672;53.362;-6.240;2022-12-20T12:58:38;100107.16;;;7.80;66.11
64336;BME280;50672;53.362;-6.240;2022-12-20T13:04:28;100108.84;;;7.81;65.94
64336;BME280;50672;53.362;-6.240;2022-12-20T13:07:01;100112.25;;;7.83;65.75
64336;BME280;50672;53.362;-6.240;2022-12-20T13:11:56;100110.69;;;7.89;65.38
64336;BME280;50672;53.362;-6.240;2022-12-20T13:19:51;100106.78;;;7.92;65.03
64336;BME280;50672;53.362;-6.240;2022-12-20T13:22:23;100142.03;;;7.92;64.83
64336;BME280;50672;53.362;-6.240;2022-12-20T13:24:58;100093.25;;;7.92;64.65
64336;BME280;50672;53.362;-6.240;2022-12-20T13:27:32;100113.91;;;7.93;64.13
64336;BME280;50672;53.362;-6.240;2022-12-20T13:40:59;100103.38;;;7.98;63.48
64336;BME280;50672;53.362;-6.240;2022-12-20T13:43:41;100108.97;;;7.96;63.37
64336;BME280;50672;53.362;-6.240;2022-12-20T13:51:04;100112.66;;;8.03;63.14
64336;BME280;50672;53.362;-6.240;2022-12-20T13:53:33;100113.53;;;8.04;62.93
64336;BME280;50672;53.362;-6.240;2022-12-20T13:56:30;100108.13;;;8.04;62.79
64336;BME280;50672;53.362;-6.240;2022-12-20T13:59:04;100098.47;;;8.01;62.97
64336;BME280;50672;53.362;-6.240;2022-12-20T14:01:31;100108.63;;;7.99;62.66
64336;BME280;50672;53.362;-6.240;2022-12-20T14:04:03;100104.41;;;7.97;62.62
64336;BME280;50672;53.362;-6.240;2022-12-20T14:06:33;100102.91;;;7.94;62.76
64336;BME280;50672;53.362;-6.240;2022-12-20T14:09:00;100103.25;;;7.91;62.68
64336;BME280;50672;53.362;-6.240;2022-12-20T14:11:27;100108.81;;;7.90;62.65
64336;BME280;50672;53.362;-6.240;2022-12-20T14:13:59;100113.41;;;7.89;62.57
64336;BME280;50672;53.362;-6.240;2022-12-20T14:16:29;100113.59;;;7.87;62.42
64336;BME280;50672;53.362;-6.240;2022-12-20T14:21:24;100120.38;;;7.83;62.30
64336;BME280;50672;53.362;-6.240;2022-12-20T14:23:54;100112.41;;;7.82;62.38
64336;BME280;50672;53.362;-6.240;2022-12-20T14:26:25;100109.88;;;7.80;62.03
64336;BME280;50672;53.362;-6.240;2022-12-20T14:28:57;100118.66;;;7.82;61.86
64336;BME280;50672;53.362;-6.240;2022-12-20T14:31:36;100122.75;;;7.78;61.95
64336;BME280;50672;53.362;-6.240;2022-12-20T14:36:32;100111.59;;;7.73;61.81
64336;BME280;50672;53.362;-6.240;2022-12-20T14:38:59;100109.91;;;7.72;61.76
64336;BME280;50672;53.362;-6.240;2022-12-20T14:41:38;100114.31;;;7.73;61.47
64336;BME280;50672;53.362;-6.240;2022-12-20T14:46:38;100137.50;;;7.67;61.55
64336;BME280;50672;53.362;-6.240;2022-12-20T14:49:33;100128.88;;;7.64;61.43
64336;BME280;50672;53.362;-6.240;2022-12-20T14:52:14;100121.94;;;7.61;61.29
64336;BME280;50672;53.362;-6.240;2022-12-20T14:57:48;100138.88;;;7.55;61.54
64336;BME280;50672;53.362;-6.240;2022-12-20T15:08:26;100142.44;;;7.47;61.44